Time;durP1;ratioP1;P1;durP2;ratioP2;P2;SDS_P1;SDS_P2;PMS_P1;PMS_P2;Temp;Humidity;BMP_temperature;BMP_pressure;BME280_temperature;BME280_humidity;BME280_pressure;Samples;Min_cycle;Max_cycle;Signal;HPM_P1;HPM_P2
2023/08/20 07:45:41;;;;;;;;;16.75;16.75;;;;;;;;5080907;27;13541;-70
2023/08/20 07:48:07;;;;;;;;;18.75;17.00;;;;;;;;5084321;28;8802;-71
2023/08/20 07:50:32;;;;;;;;;18.67;18.33;;;;;;;;5084368;28;8803;-72
2023/08/20 07:52:57;;;;;;;;;18.33;16.67;;;;;;;;5085793;28;8837;-70
2023/08/20 07:55:23;;;;;;;;;20.33;19.00;;;;;;;;5086348;28;8849;-71
2023/08/20 07:57:49;;;;;;;;;18.00;18.00;;;;;;;;5086524;28;8818;-71
2023/08/20 08:00:15;;;;;;;;;18.75;18.00;;;;;;;;5086451;28;8786;-71
2023/08/20 08:04:55;;;;;;;;;18.50;18.50;;;;;;;;5103915;27;13462;-69
2023/08/20 08:07:20;;;;;;;;;17.00;17.00;;;;;;;;5107066;28;8808;-79
2023/08/20 08:09:46;;;;;;;;;16.67;16.00;;;;;;;;5106856;28;8796;-67
2023/08/20 08:12:11;;;;;;;;;17.00;16.67;;;;;;;;5107199;28;9510;-81
2023/08/20 08:14:36;;;;;;;;;15.67;15.33;;;;;;;;5105298;28;8824;-73
2023/08/20 08:17:01;;;;;;;;;19.50;19.50;;;;;;;;5105327;28;9600;-80
2023/08/20 08:19:27;;;;;;;;;13.75;13.75;;;;;;;;5106996;28;8864;-70
2023/08/20 08:21:52;;;;;;;;;17.00;17.00;;;;;;;;5106922;28;8930;-72
2023/08/20 08:24:17;;;;;;;;;16.50;16.25;;;;;;;;5106406;28;8862;-71
2023/08/20 08:26:43;;;;;;;;;16.50;16.50;;;;;;;;5106729;28;8776;-69
2023/08/20 08:29:09;;;;;;;;;17.00;16.50;;;;;;;;5107457;28;8760;-70
2023/08/20 08:31:35;;;;;;;;;15.00;14.80;;;;;;;;5105358;28;8808;-71
2023/08/20 08:34:01;;;;;;;;;18.00;17.00;;;;;;;;5106416;28;8892;-71
2023/08/20 08:36:27;;;;;;;;;16.80;16.80;;;;;;;;5106386;28;8865;-71
2023/08/20 08:38:52;;;;;;;;;15.00;15.00;;;;;;;;5106302;28;8804;-70
2023/08/20 08:41:20;;;;;;;;;16.00;16.00;;;;;;;;5106188;28;8780;-70
2023/08/20 08:43:46;;;;;;;;;14.60;14.60;;;;;;;;5106220;28;8807;-70
2023/08/20 08:46:13;;;;;;;;;15.00;15.00;;;;;;;;5106483;28;8788;-70
2023/08/20 08:48:40;;;;;;;;;15.00;15.00;;;;;;;;5104950;28;8812;-70
2023/08/20 08:51:05;;;;;;;;;17.00;17.00;;;;;;;;5106200;28;8784;-70
2023/08/20 08:53:31;;;;;;;;;15.25;15.25;;;;;;;;5106124;28;8791;-70
2023/08/20 08:55:57;;;;;;;;;17.80;17.20;;;;;;;;5105900;28;8869;-69
2023/08/20 08:58:22;;;;;;;;;16.00;15.50;;;;;;;;5106019;28;8807;-70
2023/08/20 09:00:48;;;;;;;;;14.00;14.00;;;;;;;;5106008;28;8772;-70
2023/08/20 09:03:13;;;;;;;;;15.20;14.60;;;;;;;;5105781;28;8807;-70
2023/08/20 09:05:48;;;;;;;;;15.25;14.50;;;;;;;;5105649;28;8803;-70
2023/08/20 09:08:27;;;;;;;;;15.60;15.00;;;;;;;;5105785;28;8780;-70
2023/08/20 09:10:54;;;;;;;;;13.80;13.80;;;;;;;;5105701;28;8795;-70
2023/08/20 09:13:40;;;;;;;;;14.00;14.00;;;;;;;;5105630;28;8820;-70
2023/08/20 09:16:15;;;;;;;;;14.60;13.60;;;;;;;;5092078;28;8788;-69
2023/08/20 09:18:40;;;;;;;;;16.20;15.40;;;;;;;;5091959;28;8806;-71
2023/08/20 09:21:07;;;;;;;;;17.00;17.00;;;;;;;;5091944;28;8800;-71
2023/08/20 09:23:32;;;;;;;;;15.80;15.40;;;;;;;;5091865;28;8847;-70
2023/08/20 09:26:01;;;;;;;;;14.00;14.00;;;;;;;;5092128;28;8818;-71
2023/08/20 09:28:26;;;;;;;;;14.60;14.60;;;;;;;;5091721;28;9624;-71
2023/08/20 09:31:03;;;;;;;;;16.00;15.25;;;;;;;;5092180;28;8965;-71
2023/08/20 09:33:29;;;;;;;;;15.00;14.80;;;;;;;;5091455;28;8796;-75
2023/08/20 09:35:54;;;;;;;;;14.50;14.50;;;;;;;;5091704;28;8782;-75
2023/08/20 09:38:23;;;;;;;;;14.00;14.00;;;;;;;;5091880;28;8776;-69
2023/08/20 09:40:49;;;;;;;;;14.60;14.60;;;;;;;;5091889;28;8784;-70
2023/08/20 09:43:16;;;;;;;;;15.00;14.80;;;;;;;;5091416;28;8823;-68
2023/08/20 09:45:42;;;;;;;;;15.80;14.20;;;;;;;;5091573;28;9716;-69
2023/08/20 09:48:09;;;;;;;;;15.50;14.50;;;;;;;;5091638;28;8887;-69
2023/08/20 09:50:36;;;;;;;;;15.20;15.20;;;;;;;;5091405;28;9268;-70
2023/08/20 09:53:15;;;;;;;;;14.00;13.00;;;;;;;;5091967;28;8795;-69
2023/08/20 09:55:41;;;;;;;;;15.60;15.00;;;;;;;;5090814;28;9546;-69
2023/08/20 09:58:07;;;;;;;;;13.40;13.40;;;;;;;;5092387;28;8841;-69
2023/08/20 10:00:32;;;;;;;;;15.00;15.00;;;;;;;;5091239;28;8938;-70
2023/08/20 10:02:58;;;;;;;;;15.50;15.00;;;;;;;;5071325;28;8849;-71
2023/08/20 10:05:24;;;;;;;;;15.00;14.25;;;;;;;;5071443;28;9609;-71
2023/08/20 10:07:50;;;;;;;;;14.00;14.00;;;;;;;;5071263;28;8809;-70
2023/08/20 10:10:16;;;;;;;;;17.00;17.00;;;;;;;;5070894;28;8778;-70
2023/08/20 10:12:43;;;;;;;;;14.20;13.60;;;;;;;;5070769;28;8779;-70
2023/08/20 10:15:10;;;;;;;;;15.00;15.00;;;;;;;;5070639;28;8793;-73
2023/08/20 10:17:36;;;;;;;;;17.00;16.80;;;;;;;;5070787;28;8796;-68
2023/08/20 10:20:06;;;;;;;;;17.80;16.00;;;;;;;;5069320;28;8803;-66
2023/08/20 10:22:39;;;;;;;;;9.60;9.60;;;;;;;;5070745;28;8798;-66
2023/08/20 10:25:11;;;;;;;;;14.60;14.60;;;;;;;;5108799;28;8849;-68
2023/08/20 10:27:40;;;;;;;;;15.00;15.00;;;;;;;;5110108;28;8908;-70
2023/08/20 10:30:15;;;;;;;;;16.00;16.00;;;;;;;;5111323;28;8785;-69
2023/08/20 10:32:50;;;;;;;;;14.80;13.60;;;;;;;;5110947;28;8893;-68
2023/08/20 10:35:39;;;;;;;;;15.40;15.40;;;;;;;;5109494;28;8785;-71
2023/08/20 10:38:11;;;;;;;;;15.00;15.00;;;;;;;;5103653;28;8773;-68
2023/08/20 10:40:49;;;;;;;;;13.40;13.00;;;;;;;;5109664;28;9593;-69
2023/08/20 10:43:35;;;;;;;;;13.20;13.20;;;;;;;;5073017;28;8860;-68
2023/08/20 10:46:03;;;;;;;;;16.00;14.00;;;;;;;;5058017;28;8798;-70
2023/08/20 10:48:29;;;;;;;;;16.40;16.40;;;;;;;;5080769;28;8796;-76
2023/08/20 10:50:55;;;;;;;;;16.20;15.80;;;;;;;;5088446;28;8800;-70
2023/08/20 10:53:22;;;;;;;;;17.00;16.50;;;;;;;;5078193;28;8834;-74
2023/08/20 10:55:50;;;;;;;;;13.40;13.40;;;;;;;;5067552;28;8921;-74
2023/08/20 10:58:16;;;;;;;;;14.00;14.00;;;;;;;;5067573;28;8811;-74
2023/08/20 11:00:42;;;;;;;;;13.80;13.80;;;;;;;;5067663;28;8798;-74
2023/08/20 11:03:08;;;;;;;;;18.00;17.75;;;;;;;;5067403;28;8838;-74
2023/08/20 11:05:34;;;;;;;;;13.50;13.50;;;;;;;;5067503;28;11077;-75
2023/08/20 11:07:59;;;;;;;;;14.00;13.25;;;;;;;;5067688;28;8791;-74
2023/08/20 11:10:25;;;;;;;;;17.50;15.00;;;;;;;;5069406;28;8782;-74
2023/08/20 11:12:51;;;;;;;;;13.00;13.00;;;;;;;;5069520;28;8810;-74
2023/08/20 11:15:16;;;;;;;;;16.50;16.50;;;;;;;;5068131;28;11488;-73
2023/08/20 11:17:42;;;;;;;;;15.00;14.25;;;;;;;;5069665;28;8794;-73
2023/08/20 11:20:08;;;;;;;;;16.00;15.00;;;;;;;;5069935;28;8802;-73
2023/08/20 11:22:34;;;;;;;;;12.75;12.75;;;;;;;;5069406;28;8790;-73
2023/08/20 11:24:59;;;;;;;;;15.50;15.50;;;;;;;;5069443;28;11434;-73
2023/08/20 11:27:28;;;;;;;;;13.25;13.25;;;;;;;;5069677;28;8782;-74
2023/08/20 11:29:56;;;;;;;;;13.40;13.40;;;;;;;;5070133;28;8941;-74
2023/08/20 11:32:21;;;;;;;;;12.60;12.00;;;;;;;;5068414;28;8822;-74
2023/08/20 11:34:47;;;;;;;;;11.00;11.00;;;;;;;;5068336;28;8810;-74
2023/08/20 11:37:12;;;;;;;;;13.75;13.75;;;;;;;;5069501;28;8940;-74
2023/08/20 11:39:37;;;;;;;;;15.00;14.50;;;;;;;;5067879;28;8849;-74
2023/08/20 11:42:03;;;;;;;;;13.50;13.25;;;;;;;;5069275;28;8795;-75
2023/08/20 11:44:41;;;;;;;;;14.00;14.00;;;;;;;;5069244;28;8838;-74
2023/08/20 11:47:16;;;;;;;;;17.60;16.20;;;;;;;;5069268;28;8902;-74
2023/08/20 11:49:42;;;;;;;;;16.00;15.00;;;;;;;;5069218;28;8787;-74
2023/08/20 11:52:07;;;;;;;;;17.00;13.50;;;;;;;;5069156;28;8844;-74
2023/08/20 11:54:33;;;;;;;;;14.75;14.50;;;;;;;;5069004;28;8818;-74
2023/08/20 11:57:02;;;;;;;;;13.75;13.75;;;;;;;;5069000;28;9509;-74
2023/08/20 11:59:27;;;;;;;;;14.80;13.60;;;;;;;;5069149;28;8798;-74
2023/08/20 12:01:57;;;;;;;;;16.00;15.50;;;;;;;;5069175;28;8791;-74
2023/08/20 12:04:24;;;;;;;;;10.20;10.20;;;;;;;;5068859;28;8822;-74
2023/08/20 12:07:01;;;;;;;;;15.40;15.00;;;;;;;;5068879;28;8815;-74
2023/08/20 12:09:27;;;;;;;;;14.20;13.40;;;;;;;;5068707;28;9665;-74
2023/08/20 12:11:55;;;;;;;;;13.33;12.67;;;;;;;;5068646;28;8951;-74
2023/08/20 12:14:20;;;;;;;;;14.80;14.60;;;;;;;;5068669;28;9532;-74
2023/08/20 12:16:45;;;;;;;;;14.75;14.50;;;;;;;;5068848;28;8805;-75
2023/08/20 12:19:11;;;;;;;;;12.75;12.75;;;;;;;;5068747;28;8885;-74
2023/08/20 12:21:36;;;;;;;;;13.00;13.00;;;;;;;;5067273;28;9501;-74
2023/08/20 12:24:01;;;;;;;;;10.50;10.50;;;;;;;;5068670;28;8887;-74
2023/08/20 12:26:26;;;;;;;;;12.50;12.50;;;;;;;;5068540;28;8791;-74
2023/08/20 12:28:52;;;;;;;;;13.75;13.25;;;;;;;;5068665;28;8802;-74
2023/08/20 12:31:17;;;;;;;;;13.25;12.75;;;;;;;;5068272;22;8935;-76
2023/08/20 12:33:42;;;;;;;;;12.00;11.75;;;;;;;;5046312;28;8828;-76
2023/08/20 12:36:08;;;;;;;;;12.00;11.75;;;;;;;;5046154;28;8927;-76
2023/08/20 12:38:34;;;;;;;;;11.75;11.75;;;;;;;;5045974;28;8825;-77
2023/08/20 12:41:00;;;;;;;;;11.75;10.75;;;;;;;;5047155;28;8859;-75
2023/08/20 12:43:25;;;;;;;;;13.60;13.00;;;;;;;;5047099;28;8840;-77
2023/08/20 12:45:50;;;;;;;;;15.33;13.67;;;;;;;;5047501;28;8769;-75
2023/08/20 12:48:16;;;;;;;;;13.00;13.00;;;;;;;;5047575;28;8794;-76
2023/08/20 12:50:41;;;;;;;;;11.33;11.33;;;;;;;;5049630;28;8808;-77
2023/08/20 12:53:07;;;;;;;;;14.75;14.50;;;;;;;;5051184;28;8793;-76
2023/08/20 12:55:32;;;;;;;;;12.00;12.00;;;;;;;;5048438;28;8861;-74
2023/08/20 12:57:59;;;;;;;;;11.33;11.33;;;;;;;;5050927;28;8825;-74
2023/08/20 13:00:25;;;;;;;;;14.80;13.00;;;;;;;;5050752;28;8939;-73
2023/08/20 13:02:50;;;;;;;;;12.60;12.60;;;;;;;;5050667;28;8797;-75
2023/08/20 13:05:16;;;;;;;;;16.00;16.00;;;;;;;;5050646;28;8832;-74
2023/08/20 13:07:41;;;;;;;;;16.00;16.00;;;;;;;;5050726;28;8853;-75
2023/08/20 13:10:08;;;;;;;;;14.33;14.33;;;;;;;;5050632;28;8858;-75
2023/08/20 13:12:34;;;;;;;;;13.75;13.75;;;;;;;;5050683;28;8801;-74
2023/08/20 13:14:59;;;;;;;;;14.33;13.00;;;;;;;;5050395;28;9089;-74
2023/08/20 13:17:26;;;;;;;;;14.33;14.33;;;;;;;;5050743;28;8844;-74
2023/08/20 13:19:51;;;;;;;;;14.25;14.00;;;;;;;;5050598;28;8786;-74
2023/08/20 13:22:17;;;;;;;;;16.67;16.67;;;;;;;;5049217;28;8923;-74
2023/08/20 13:24:42;;;;;;;;;13.00;13.00;;;;;;;;5050318;28;8837;-74
2023/08/20 13:27:07;;;;;;;;;13.00;12.33;;;;;;;;5049030;28;8797;-74
2023/08/20 13:29:32;;;;;;;;;15.33;15.33;;;;;;;;5050611;28;8804;-75
2023/08/20 13:31:58;;;;;;;;;15.33;15.33;;;;;;;;5050737;28;8829;-74
2023/08/20 13:34:23;;;;;;;;;18.33;18.00;;;;;;;;5050595;28;8809;-74
2023/08/20 13:36:49;;;;;;;;;16.33;15.33;;;;;;;;5050645;28;8800;-75
2023/08/20 13:39:14;;;;;;;;;19.33;16.67;;;;;;;;5048945;28;8828;-74
2023/08/20 13:41:40;;;;;;;;;13.67;13.67;;;;;;;;5050330;28;8894;-74
2023/08/20 13:44:05;;;;;;;;;16.33;16.33;;;;;;;;5050122;28;8951;-75
2023/08/20 13:46:31;;;;;;;;;15.00;15.00;;;;;;;;5050322;28;8813;-74
2023/08/20 13:48:56;;;;;;;;;17.67;16.00;;;;;;;;5050371;28;8805;-74
2023/08/20 13:51:21;;;;;;;;;15.00;15.00;;;;;;;;5048826;28;8910;-74
2023/08/20 13:53:46;;;;;;;;;16.67;16.67;;;;;;;;5050137;28;8839;-74
2023/08/20 13:56:12;;;;;;;;;16.00;15.67;;;;;;;;5049887;28;8801;-74
2023/08/20 13:58:37;;;;;;;;;12.67;12.67;;;;;;;;5050009;28;8793;-73
2023/08/20 14:01:02;;;;;;;;;16.33;15.67;;;;;;;;5049575;28;8793;-74
2023/08/20 14:03:28;;;;;;;;;15.33;15.33;;;;;;;;5048311;28;8976;-75
2023/08/20 14:05:53;;;;;;;;;15.67;15.00;;;;;;;;5049922;28;8824;-76
2023/08/20 14:08:18;;;;;;;;;17.00;15.67;;;;;;;;5049788;28;8958;-75
2023/08/20 14:10:44;;;;;;;;;15.33;15.00;;;;;;;;5048297;28;8882;-76
2023/08/20 14:13:09;;;;;;;;;17.67;17.67;;;;;;;;5049663;28;9574;-75
2023/08/20 14:15:35;;;;;;;;;17.67;15.00;;;;;;;;5049326;28;8777;-75
2023/08/20 14:18:01;;;;;;;;;17.00;17.00;;;;;;;;5049392;28;8769;-75
2023/08/20 14:20:26;;;;;;;;;15.67;15.67;;;;;;;;5049498;28;8933;-75
2023/08/20 14:22:51;;;;;;;;;19.33;16.33;;;;;;;;5049513;28;8867;-75
2023/08/20 14:25:17;;;;;;;;;15.33;15.00;;;;;;;;5049388;28;9815;-74
2023/08/20 14:27:42;;;;;;;;;16.00;16.00;;;;;;;;5049163;28;8781;-74
2023/08/20 14:30:08;;;;;;;;;15.00;14.33;;;;;;;;5049617;28;8805;-75
2023/08/20 14:32:33;;;;;;;;;17.00;16.67;;;;;;;;5049290;28;8824;-75
2023/08/20 14:34:58;;;;;;;;;14.67;12.33;;;;;;;;5049164;28;8931;-74
2023/08/20 14:37:24;;;;;;;;;15.00;14.00;;;;;;;;5049125;28;8920;-74
2023/08/20 14:39:49;;;;;;;;;15.67;14.67;;;;;;;;5048738;28;8822;-75
2023/08/20 14:42:15;;;;;;;;;17.00;15.33;;;;;;;;5049055;28;8816;-75
2023/08/20 14:44:40;;;;;;;;;13.67;13.00;;;;;;;;5049084;28;9601;-75
2023/08/20 14:47:06;;;;;;;;;15.33;14.67;;;;;;;;5049155;28;8940;-75
2023/08/20 14:49:31;;;;;;;;;14.33;14.33;;;;;;;;5048831;28;9508;-75
2023/08/20 14:51:56;;;;;;;;;16.33;14.33;;;;;;;;5048676;28;8809;-78
2023/08/20 14:54:22;;;;;;;;;17.33;13.67;;;;;;;;5047614;28;8841;-72
2023/08/20 14:56:47;;;;;;;;;14.67;14.67;;;;;;;;5048906;28;8809;-75
2023/08/20 14:59:13;;;;;;;;;15.33;13.33;;;;;;;;5048731;28;8812;-75
2023/08/20 15:01:38;;;;;;;;;14.75;13.00;;;;;;;;5048827;28;8904;-74
2023/08/20 15:04:04;;;;;;;;;11.25;10.25;;;;;;;;5048634;28;11504;-71
2023/08/20 15:06:29;;;;;;;;;15.67;13.00;;;;;;;;5048904;28;8805;-72
2023/08/20 15:08:54;;;;;;;;;14.00;14.00;;;;;;;;5048810;28;8896;-73
2023/08/20 15:11:20;;;;;;;;;15.67;14.67;;;;;;;;5048766;28;8797;-73
2023/08/20 15:13:45;;;;;;;;;14.67;14.67;;;;;;;;5047983;28;9597;-73
2023/08/20 15:16:10;;;;;;;;;10.67;10.33;;;;;;;;5048963;28;8864;-73
2023/08/20 15:18:39;;;;;;;;;12.33;12.33;;;;;;;;5049348;28;9004;-73
2023/08/20 15:21:04;;;;;;;;;12.40;11.00;;;;;;;;5048929;28;8912;-73
2023/08/20 15:23:30;;;;;;;;;13.25;13.25;;;;;;;;5048427;28;9065;-73
